Kiyomaru No.8 — JD2526 — position and weather

sailwx.info

Track history (hours):
 
Tides and Currents Weather Stations Pressure Air Temp Water Temp Dewpoint Dewpoint Depression Visibility Wind Speed Wind Dir Waves Ship Positions

Kiyomaru No.8

Last reported at 2017-Nov-20 00:31 UTC. Time now 2017-Nov-21 19:13 UTC.
Position N 35°41' E 139°59'.

Length 104 m; draft 6.7 m.

Type: Ship. MMSI: 431000384.

Date/timePositionNaut miles runAvg speedWind from/ knotsBaromVisibWave heightAir tempDewpointWater temp
2017-Nov-20 00:31N 35°41' E 139°59'0 0.0
2017-Nov-20 00:00N 35°41' E 139°59'0 0.0
2017-Nov-19 23:31N 35°41' E 139°59'0 0.0
2017-Nov-19 23:01N 35°41' E 139°59'0 0.0
2017-Nov-19 22:30N 35°41' E 139°59'0 0.0
2017-Nov-19 22:01N 35°41' E 139°59'0 0.0
2017-Nov-19 21:31N 35°41' E 139°59'0 0.0
2017-Nov-19 21:00N 35°41' E 139°59'0 0.0
2017-Nov-19 20:31N 35°41' E 139°59'0 0.0
2017-Nov-19 20:01N 35°41' E 139°59'0 0.0
2017-Nov-19 19:31N 35°41' E 139°59'0 0.0
2017-Nov-19 19:00N 35°41' E 139°59'0 0.0
2017-Nov-19 18:31N 35°41' E 139°59'0 0.0
2017-Nov-19 18:01N 35°41' E 139°59'0 0.0
2017-Nov-19 17:30N 35°41' E 139°59'0 0.0
2017-Nov-19 17:01N 35°41' E 139°59'0 0.0
2017-Nov-19 16:31N 35°41' E 139°59'0 0.0
2017-Nov-19 16:01N 35°41' E 139°59'0 0.0
2017-Nov-19 15:31N 35°41' E 139°59'0 0.0
2017-Nov-19 15:00N 35°41' E 139°59'0 0.0
2017-Nov-19 14:30N 35°41' E 139°59'0 0.0
2017-Nov-19 14:00N 35°41' E 139°59'0 0.0
2017-Nov-19 13:30N 35°41' E 139°59'0 0.0
2017-Nov-19 13:00N 35°41' E 139°59'0 0.0
2017-Nov-19 12:30N 35°41' E 139°59'0 0.0
2017-Nov-19 12:01N 35°41' E 139°59'0 0.0
2017-Nov-19 11:31N 35°41' E 139°59'0 0.0
2017-Nov-19 11:00N 35°41' E 139°59'0 0.0
2017-Nov-19 10:31N 35°41' E 139°59'0 0.0
2017-Nov-19 10:00N 35°41' E 139°59'0 0.0
2017-Nov-19 09:30N 35°41' E 139°59'0 0.0
2017-Nov-19 09:00N 35°41' E 139°59'0 0.0
2017-Nov-19 08:30N 35°41' E 139°59'0 0.0
2017-Nov-19 08:00N 35°41' E 139°59'0 0.0
2017-Nov-19 07:31N 35°41' E 139°59'0 0.0
2017-Nov-19 07:00N 35°41' E 139°59'0 0.0
2017-Nov-19 06:28N 35°41' E 139°59'0 0.0
2017-Nov-19 06:00N 35°41' E 139°59'0 0.0
2017-Nov-19 05:30N 35°41' E 139°59'0 0.0
2017-Nov-19 05:01N 35°41' E 139°59'0 0.0
2017-Nov-19 04:30N 35°41' E 139°59'0 0.0
2017-Nov-19 04:00N 35°41' E 139°59'0 0.0
2017-Nov-19 03:30N 35°41' E 139°59'0 0.0
2017-Nov-19 03:01N 35°41' E 139°59'0 0.0
2017-Nov-19 02:30N 35°41' E 139°59'0 0.0
2017-Nov-19 02:01N 35°41' E 139°59'0 0.0
2017-Nov-19 01:31N 35°41' E 139°59'0 0.0
2017-Nov-19 01:01N 35°41' E 139°59'0 0.0
2017-Nov-19 00:30N 35°41' E 139°59'0 0.0
2017-Nov-19 00:00N 35°41' E 139°59'0 0.0
2017-Nov-18 23:31N 35°41' E 139°59'8 0.2
2017-Nov-16 21:53N 35°33' E 140°02'  
2017-Nov-14 17:19N 35°33' E 140°02'1 0.1
2017-Nov-14 00:42N 35°32' E 140°01'0 2.0
2017-Nov-14 00:30N 35°32' E 140°01'4 0.1
2017-Nov-12 22:16N 35°32' E 139°57'4 9.6
2017-Nov-12 21:52N 35°31' E 139°52'3 9.2
2017-Nov-12 21:31N 35°30' E 139°48'2 3.0
2017-Nov-12 21:00N 35°31' E 139°46'0 0.1
2017-Nov-12 20:31N 35°31' E 139°46'0 0.1
2017-Nov-12 20:01N 35°31' E 139°46'0 0.0
2017-Nov-12 19:31N 35°31' E 139°46'0 0.0
2017-Nov-12 19:01N 35°31' E 139°46'0 0.0
2017-Nov-12 18:31N 35°31' E 139°46'0 0.0
2017-Nov-12 18:01N 35°31' E 139°46'0 0.0
2017-Nov-12 17:31N 35°31' E 139°46'0 0.0
2017-Nov-12 17:00N 35°31' E 139°46'0 0.0
2017-Nov-12 16:30N 35°31' E 139°46'0 0.0
2017-Nov-12 16:01N 35°31' E 139°46'0 0.0
2017-Nov-12 15:31N 35°31' E 139°46'0 0.0
2017-Nov-12 15:00N 35°31' E 139°46'0 0.0
2017-Nov-12 14:30N 35°31' E 139°46'0 0.0
2017-Nov-12 14:00N 35°31' E 139°46'0 0.0
2017-Nov-12 13:31N 35°31' E 139°46'0 0.0
2017-Nov-12 13:00N 35°31' E 139°46'0 0.0
2017-Nov-12 12:31N 35°31' E 139°46'0 0.0
2017-Nov-12 12:01N 35°31' E 139°46'0 0.0
2017-Nov-12 11:31N 35°31' E 139°46'0 0.0
2017-Nov-12 11:01N 35°31' E 139°46'0 0.0
2017-Nov-12 10:30N 35°31' E 139°46'0 0.0
2017-Nov-12 10:01N 35°31' E 139°46'0 0.0
2017-Nov-12 09:31N 35°31' E 139°46'0 0.0
2017-Nov-12 09:00N 35°31' E 139°46'0 0.0
2017-Nov-12 08:30N 35°31' E 139°46'0 0.0
2017-Nov-12 08:01N 35°31' E 139°46'0 0.0
2017-Nov-12 07:31N 35°31' E 139°46'0 0.0
2017-Nov-12 07:00N 35°31' E 139°46'0 0.0
2017-Nov-12 06:31N 35°31' E 139°46'0 0.0
2017-Nov-12 06:01N 35°31' E 139°46'0 0.0
2017-Nov-12 05:30N 35°31' E 139°46'0 0.0
2017-Nov-12 05:00N 35°31' E 139°46'0 0.0
2017-Nov-12 04:31N 35°31' E 139°46'0 0.0
2017-Nov-12 04:01N 35°31' E 139°46'0 0.0
2017-Nov-12 03:31N 35°31' E 139°46'0 0.0
2017-Nov-12 03:00N 35°31' E 139°46'0 0.0
2017-Nov-12 02:31N 35°31' E 139°46'0 0.0
2017-Nov-12 02:00N 35°31' E 139°46'0 0.1
2017-Nov-12 01:31N 35°31' E 139°46'2 4.9
2017-Nov-12 01:01N 35°30' E 139°44'3 5.3
2017-Nov-12 00:31N 35°27' E 139°44'2 4.1
2017-Nov-12 00:01N 35°27' E 139°47'4 8.1
2017-Nov-11 23:31N 35°29' E 139°51'5 9.4
2017-Nov-11 23:01N 35°34' E 139°53'1 2.5
2017-Nov-11 22:29N 35°35' E 139°53'0 0.1
2017-Nov-11 21:57N 35°35' E 139°53'0 0.0
2017-Nov-11 21:31N 35°35' E 139°53'0 0.0
2017-Nov-11 20:56N 35°35' E 139°53'0 0.0
2017-Nov-11 20:30N 35°35' E 139°53'0 0.0
2017-Nov-11 19:57N 35°35' E 139°53'0 0.0
2017-Nov-11 18:14N 35°35' E 139°53'0 0.0
2017-Nov-11 01:46N 35°35' E 139°53'0 0.0
2017-Nov-11 01:23N 35°35' E 139°53'0 0.2
2017-Nov-11 00:58N 35°35' E 139°53'0 0.0
2017-Nov-11 00:30N 35°35' E 139°53'0 0.0
2017-Nov-10 23:59N 35°35' E 139°53'0 0.0
2017-Nov-10 23:29N 35°35' E 139°53'0 0.0
2017-Nov-10 22:56N 35°35' E 139°53'0 0.0
2017-Nov-10 22:29N 35°35' E 139°53'0 0.0
2017-Nov-10 21:59N 35°35' E 139°53'0 0.0
2017-Nov-10 21:26N 35°35' E 139°53'0 0.0
2017-Nov-10 20:47N 35°35' E 139°53'0 0.0
2017-Nov-10 20:29N 35°35' E 139°53'0 0.0
2017-Nov-10 20:00N 35°35' E 139°53'0 0.0
2017-Nov-10 19:30N 35°35' E 139°53'0 0.0
2017-Nov-10 19:00N 35°35' E 139°53'0 0.0
2017-Nov-10 18:30N 35°35' E 139°53'0 0.0
2017-Nov-10 18:00N 35°35' E 139°53'0 0.0
2017-Nov-10 16:07N 35°35' E 139°53'0 0.0
2017-Nov-10 16:00N 35°35' E 139°53'0 0.0
2017-Nov-10 15:30N 35°35' E 139°53'0 0.0
2017-Nov-10 14:56N 35°35' E 139°53'0 0.0
2017-Nov-10 12:32N 35°35' E 139°53'0 0.0
2017-Nov-10 12:30N 35°35' E 139°53'1 1.1
2017-Nov-10 12:00N 35°35' E 139°53'7 0.8
2017-Nov-10 03:16N 35°32' E 140°01'  
Track history (hours):
 
Tides and Currents Weather Stations Pressure Air Temp Water Temp Dewpoint Dewpoint Depression Visibility Wind Speed Wind Dir Waves Ship Positions

Kiyomaru No.8

Last reported at 2017-Nov-20 00:31 UTC. Time now 2017-Nov-21 19:13 UTC.
Position N 35°41' E 139°59'.

Length 104 m; draft 6.7 m.

Type: Ship. MMSI: 431000384.

Date/timePositionNaut miles runAvg speedWind from/ knotsBaromVisibWave heightAir tempDewpointWater temp
2017-Nov-20 00:31N 35°41' E 139°59'0 0.0
2017-Nov-20 00:00N 35°41' E 139°59'0 0.0
2017-Nov-19 23:31N 35°41' E 139°59'0 0.0
2017-Nov-19 23:01N 35°41' E 139°59'0 0.0
2017-Nov-19 22:30N 35°41' E 139°59'0 0.0
2017-Nov-19 22:01N 35°41' E 139°59'0 0.0
2017-Nov-19 21:31N 35°41' E 139°59'0 0.0
2017-Nov-19 21:00N 35°41' E 139°59'0 0.0
2017-Nov-19 20:31N 35°41' E 139°59'0 0.0
2017-Nov-19 20:01N 35°41' E 139°59'0 0.0
2017-Nov-19 19:31N 35°41' E 139°59'0 0.0
2017-Nov-19 19:00N 35°41' E 139°59'0 0.0
2017-Nov-19 18:31N 35°41' E 139°59'0 0.0
2017-Nov-19 18:01N 35°41' E 139°59'0 0.0
2017-Nov-19 17:30N 35°41' E 139°59'0 0.0
2017-Nov-19 17:01N 35°41' E 139°59'0 0.0
2017-Nov-19 16:31N 35°41' E 139°59'0 0.0
2017-Nov-19 16:01N 35°41' E 139°59'0 0.0
2017-Nov-19 15:31N 35°41' E 139°59'0 0.0
2017-Nov-19 15:00N 35°41' E 139°59'0 0.0
2017-Nov-19 14:30N 35°41' E 139°59'0 0.0
2017-Nov-19 14:00N 35°41' E 139°59'0 0.0
2017-Nov-19 13:30N 35°41' E 139°59'0 0.0
2017-Nov-19 13:00N 35°41' E 139°59'0 0.0
2017-Nov-19 12:30N 35°41' E 139°59'0 0.0
2017-Nov-19 12:01N 35°41' E 139°59'0 0.0
2017-Nov-19 11:31N 35°41' E 139°59'0 0.0
2017-Nov-19 11:00N 35°41' E 139°59'0 0.0
2017-Nov-19 10:31N 35°41' E 139°59'0 0.0
2017-Nov-19 10:00N 35°41' E 139°59'0 0.0
2017-Nov-19 09:30N 35°41' E 139°59'0 0.0
2017-Nov-19 09:00N 35°41' E 139°59'0 0.0
2017-Nov-19 08:30N 35°41' E 139°59'0 0.0
2017-Nov-19 08:00N 35°41' E 139°59'0 0.0
2017-Nov-19 07:31N 35°41' E 139°59'0 0.0
2017-Nov-19 07:00N 35°41' E 139°59'0 0.0
2017-Nov-19 06:28N 35°41' E 139°59'0 0.0
2017-Nov-19 06:00N 35°41' E 139°59'0 0.0
2017-Nov-19 05:30N 35°41' E 139°59'0 0.0
2017-Nov-19 05:01N 35°41' E 139°59'0 0.0
2017-Nov-19 04:30N 35°41' E 139°59'0 0.0
2017-Nov-19 04:00N 35°41' E 139°59'0 0.0
2017-Nov-19 03:30N 35°41' E 139°59'0 0.0
2017-Nov-19 03:01N 35°41' E 139°59'0 0.0
2017-Nov-19 02:30N 35°41' E 139°59'0 0.0
2017-Nov-19 02:01N 35°41' E 139°59'0 0.0
2017-Nov-19 01:31N 35°41' E 139°59'0 0.0
2017-Nov-19 01:01N 35°41' E 139°59'0 0.0
2017-Nov-19 00:30N 35°41' E 139°59'0 0.0
2017-Nov-19 00:00N 35°41' E 139°59'0 0.0
2017-Nov-18 23:31N 35°41' E 139°59'8 0.2
2017-Nov-16 21:53N 35°33' E 140°02'  
2017-Nov-14 17:19N 35°33' E 140°02'1 0.1
2017-Nov-14 00:42N 35°32' E 140°01'0 2.0
2017-Nov-14 00:30N 35°32' E 140°01'4 0.1
2017-Nov-12 22:16N 35°32' E 139°57'4 9.6
2017-Nov-12 21:52N 35°31' E 139°52'3 9.2
2017-Nov-12 21:31N 35°30' E 139°48'2 3.0
2017-Nov-12 21:00N 35°31' E 139°46'0 0.1
2017-Nov-12 20:31N 35°31' E 139°46'0 0.1
2017-Nov-12 20:01N 35°31' E 139°46'0 0.0
2017-Nov-12 19:31N 35°31' E 139°46'0 0.0
2017-Nov-12 19:01N 35°31' E 139°46'0 0.0
2017-Nov-12 18:31N 35°31' E 139°46'0 0.0
2017-Nov-12 18:01N 35°31' E 139°46'0 0.0
2017-Nov-12 17:31N 35°31' E 139°46'0 0.0
2017-Nov-12 17:00N 35°31' E 139°46'0 0.0
2017-Nov-12 16:30N 35°31' E 139°46'0 0.0
2017-Nov-12 16:01N 35°31' E 139°46'0 0.0
2017-Nov-12 15:31N 35°31' E 139°46'0 0.0
2017-Nov-12 15:00N 35°31' E 139°46'0 0.0
2017-Nov-12 14:30N 35°31' E 139°46'0 0.0
2017-Nov-12 14:00N 35°31' E 139°46'0 0.0
2017-Nov-12 13:31N 35°31' E 139°46'0 0.0
2017-Nov-12 13:00N 35°31' E 139°46'0 0.0
2017-Nov-12 12:31N 35°31' E 139°46'0 0.0
2017-Nov-12 12:01N 35°31' E 139°46'0 0.0
2017-Nov-12 11:31N 35°31' E 139°46'0 0.0
2017-Nov-12 11:01N 35°31' E 139°46'0 0.0
2017-Nov-12 10:30N 35°31' E 139°46'0 0.0
2017-Nov-12 10:01N 35°31' E 139°46'0 0.0
2017-Nov-12 09:31N 35°31' E 139°46'0 0.0
2017-Nov-12 09:00N 35°31' E 139°46'0 0.0
2017-Nov-12 08:30N 35°31' E 139°46'0 0.0
2017-Nov-12 08:01N 35°31' E 139°46'0 0.0
2017-Nov-12 07:31N 35°31' E 139°46'0 0.0
2017-Nov-12 07:00N 35°31' E 139°46'0 0.0
2017-Nov-12 06:31N 35°31' E 139°46'0 0.0
2017-Nov-12 06:01N 35°31' E 139°46'0 0.0
2017-Nov-12 05:30N 35°31' E 139°46'0 0.0
2017-Nov-12 05:00N 35°31' E 139°46'0 0.0
2017-Nov-12 04:31N 35°31' E 139°46'0 0.0
2017-Nov-12 04:01N 35°31' E 139°46'0 0.0
2017-Nov-12 03:31N 35°31' E 139°46'0 0.0
2017-Nov-12 03:00N 35°31' E 139°46'0 0.0
2017-Nov-12 02:31N 35°31' E 139°46'0 0.0
2017-Nov-12 02:00N 35°31' E 139°46'0 0.1
2017-Nov-12 01:31N 35°31' E 139°46'2 4.9
2017-Nov-12 01:01N 35°30' E 139°44'3 5.3
2017-Nov-12 00:31N 35°27' E 139°44'2 4.1
2017-Nov-12 00:01N 35°27' E 139°47'4 8.1
2017-Nov-11 23:31N 35°29' E 139°51'5 9.4
2017-Nov-11 23:01N 35°34' E 139°53'1 2.5
2017-Nov-11 22:29N 35°35' E 139°53'0 0.1
2017-Nov-11 21:57N 35°35' E 139°53'0 0.0
2017-Nov-11 21:31N 35°35' E 139°53'0 0.0
2017-Nov-11 20:56N 35°35' E 139°53'0 0.0
2017-Nov-11 20:30N 35°35' E 139°53'0 0.0
2017-Nov-11 19:57N 35°35' E 139°53'0 0.0
2017-Nov-11 18:14N 35°35' E 139°53'0 0.0
2017-Nov-11 01:46N 35°35' E 139°53'0 0.0
2017-Nov-11 01:23N 35°35' E 139°53'0 0.2
2017-Nov-11 00:58N 35°35' E 139°53'0 0.0
2017-Nov-11 00:30N 35°35' E 139°53'0 0.0
2017-Nov-10 23:59N 35°35' E 139°53'0 0.0
2017-Nov-10 23:29N 35°35' E 139°53'0 0.0
2017-Nov-10 22:56N 35°35' E 139°53'0 0.0
2017-Nov-10 22:29N 35°35' E 139°53'0 0.0
2017-Nov-10 21:59N 35°35' E 139°53'0 0.0
2017-Nov-10 21:26N 35°35' E 139°53'0 0.0
2017-Nov-10 20:47N 35°35' E 139°53'0 0.0
2017-Nov-10 20:29N 35°35' E 139°53'0 0.0
2017-Nov-10 20:00N 35°35' E 139°53'0 0.0
2017-Nov-10 19:30N 35°35' E 139°53'0 0.0
2017-Nov-10 19:00N 35°35' E 139°53'0 0.0
2017-Nov-10 18:30N 35°35' E 139°53'0 0.0
2017-Nov-10 18:00N 35°35' E 139°53'0 0.0
2017-Nov-10 16:07N 35°35' E 139°53'0 0.0
2017-Nov-10 16:00N 35°35' E 139°53'0 0.0
2017-Nov-10 15:30N 35°35' E 139°53'0 0.0
2017-Nov-10 14:56N 35°35' E 139°53'0 0.0
2017-Nov-10 12:32N 35°35' E 139°53'0 0.0
2017-Nov-10 12:30N 35°35' E 139°53'1 1.1
2017-Nov-10 12:00N 35°35' E 139°53'7 0.8
2017-Nov-10 03:16N 35°32' E 140°01'  

Dump ship's entire track history